createdAt,value
2017-08-08T00:00:48.075Z,67.50
2017-08-08T00:03:15.665Z,66.70
2017-08-08T00:05:44.009Z,67.50
2017-08-08T00:08:11.732Z,67.40
2017-08-08T00:10:39.366Z,69.10
2017-08-08T00:13:06.995Z,68.50
2017-08-08T00:15:34.654Z,68.90
2017-08-08T00:18:02.341Z,69.40
2017-08-08T00:20:29.931Z,70.70
2017-08-08T00:22:57.564Z,70.40
2017-08-08T00:25:26.042Z,69.90
2017-08-08T00:27:53.634Z,69.10
2017-08-08T00:30:21.273Z,68.50
2017-08-08T00:32:49.886Z,68.60
2017-08-08T00:35:17.485Z,68.60
2017-08-08T00:37:45.101Z,68.70
2017-08-08T00:40:12.843Z,68.90
2017-08-08T00:42:40.490Z,68.80
2017-08-08T00:45:08.151Z,71.00
2017-08-08T00:47:35.741Z,71.00
2017-08-08T00:50:04.166Z,72.10
2017-08-08T00:52:31.946Z,72.10
2017-08-08T00:54:59.526Z,73.00
2017-08-08T00:57:27.109Z,72.50
2017-08-08T00:59:54.915Z,74.60
2017-08-08T01:02:22.495Z,74.80
2017-08-08T01:04:50.068Z,73.20
2017-08-08T01:07:17.927Z,71.70
2017-08-08T01:09:45.520Z,72.20
2017-08-08T01:12:13.155Z,74.80
2017-08-08T01:14:40.850Z,73.90
2017-08-08T01:17:08.441Z,74.90
2017-08-08T01:19:36.022Z,75.60
2017-08-08T01:22:03.640Z,74.50
2017-08-08T01:24:31.422Z,76.20
2017-08-08T01:26:58.999Z,76.70
2017-08-08T01:29:26.619Z,76.90
2017-08-08T01:31:54.272Z,77.90
2017-08-08T01:34:21.858Z,78.80
2017-08-08T01:36:49.494Z,78.70
2017-08-08T01:39:17.912Z,78.30
2017-08-08T01:41:45.521Z,78.20
2017-08-08T01:44:13.305Z,78.20
2017-08-08T01:46:40.915Z,78.20
2017-08-08T01:49:08.585Z,78.70
2017-08-08T01:51:36.212Z,78.50
2017-08-08T01:54:03.833Z,79.70
2017-08-08T01:56:32.266Z,80.00
2017-08-08T01:58:59.909Z,80.00
2017-08-08T02:01:27.526Z,78.50
2017-08-08T02:03:55.920Z,79.50
2017-08-08T02:06:24.708Z,79.50
2017-08-08T02:08:52.310Z,80.30
2017-08-08T02:11:19.942Z,80.70
2017-08-08T02:13:47.682Z,81.10
2017-08-08T02:16:15.268Z,81.30
2017-08-08T02:18:42.849Z,81.50
2017-08-08T02:21:10.503Z,81.70
2017-08-08T02:23:38.217Z,81.00
2017-08-08T02:26:05.829Z,79.50
2017-08-08T02:28:33.460Z,80.10
2017-08-08T02:31:01.923Z,80.40
2017-08-08T02:33:29.569Z,80.40
2017-08-08T02:35:57.189Z,80.70
2017-08-08T02:38:24.773Z,79.50
2017-08-08T02:40:52.439Z,80.70
2017-08-08T02:43:20.073Z,80.60
2017-08-08T02:45:47.669Z,79.80
2017-08-08T02:48:15.373Z,78.90
2017-08-08T02:50:43.831Z,78.20
2017-08-08T02:53:11.422Z,78.20
2017-08-08T02:55:39.015Z,79.60
2017-08-08T02:58:06.780Z,79.20
2017-08-08T03:00:34.380Z,78.70
2017-08-08T03:03:01.965Z,79.60
2017-08-08T03:05:30.754Z,79.10
2017-08-08T03:07:58.584Z,79.10
2017-08-08T03:10:26.178Z,79.90
2017-08-08T03:12:53.814Z,80.90
2017-08-08T03:15:21.503Z,81.10
2017-08-08T03:17:49.885Z,81.50
2017-08-08T03:20:17.501Z,81.50
2017-08-08T03:22:45.108Z,82.30
2017-08-08T03:25:12.729Z,82.50
2017-08-08T03:27:40.354Z,82.20
2017-08-08T03:30:07.952Z,82.30
2017-08-08T03:32:35.578Z,81.30
2017-08-08T03:35:03.204Z,81.80
2017-08-08T03:37:30.807Z,83.40
2017-08-08T03:39:58.555Z,83.10
2017-08-08T03:42:26.311Z,83.10
2017-08-08T03:44:53.899Z,83.90
2017-08-08T03:47:21.477Z,84.20
2017-08-08T03:49:49.118Z,85.00
2017-08-08T03:52:16.692Z,85.00
2017-08-08T03:54:44.380Z,84.80
2017-08-08T03:57:12.064Z,85.30
2017-08-08T03:59:39.663Z,84.80
2017-08-08T04:02:07.459Z,85.10
2017-08-08T04:04:35.108Z,84.90
2017-08-08T04:07:02.771Z,85.00
2017-08-08T04:09:30.356Z,84.90
2017-08-08T04:11:58.003Z,85.20
2017-08-08T04:14:25.621Z,85.30
2017-08-08T04:16:53.454Z,85.90
2017-08-08T04:19:21.072Z,85.50
2017-08-08T04:21:48.730Z,85.80
2017-08-08T04:24:16.333Z,85.50
2017-08-08T04:26:44.748Z,85.80
2017-08-08T04:29:12.455Z,85.10
2017-08-08T04:31:40.088Z,83.90
2017-08-08T04:34:08.089Z,83.60
2017-08-08T04:36:36.078Z,83.30
2017-08-08T04:39:04.471Z,83.40
2017-08-08T04:41:32.554Z,83.40
2017-08-08T04:44:00.357Z,82.80
2017-08-08T04:46:28.086Z,82.40
2017-08-08T04:48:55.820Z,82.40
2017-08-08T04:51:24.413Z,81.90
2017-08-08T04:53:51.997Z,81.90
2017-08-08T04:56:19.753Z,81.70
2017-08-08T04:58:47.349Z,82.80
2017-08-08T05:01:14.974Z,83.00
2017-08-08T05:03:42.615Z,81.10
2017-08-08T05:06:10.266Z,81.60
2017-08-08T05:08:37.892Z,80.60
2017-08-08T05:11:05.518Z,80.30
2017-08-08T05:13:33.124Z,80.30
2017-08-08T05:16:01.094Z,77.50
2017-08-08T05:18:28.713Z,75.90
2017-08-08T05:20:56.323Z,77.10
2017-08-08T05:23:23.962Z,74.50
2017-08-08T05:25:51.649Z,73.80
2017-08-08T05:28:20.102Z,70.10
2017-08-08T05:30:47.712Z,70.00
2017-08-08T05:33:16.193Z,68.10
2017-08-08T05:35:43.797Z,68.10
2017-08-08T05:38:19.279Z,70.20
2017-08-08T05:40:47.744Z,71.30
2017-08-08T05:43:15.322Z,70.50
2017-08-08T05:45:42.937Z,70.10
2017-08-08T05:48:10.558Z,71.00
2017-08-08T05:50:38.214Z,70.00
2017-08-08T05:53:05.975Z,69.80
2017-08-08T05:55:34.421Z,70.00
2017-08-08T05:58:02.046Z,70.00
2017-08-08T06:00:29.680Z,70.60
2017-08-08T06:02:58.124Z,71.30
2017-08-08T06:05:25.929Z,71.30
2017-08-08T06:07:53.582Z,71.70
2017-08-08T06:10:21.248Z,73.10
2017-08-08T06:12:48.865Z,72.90
2017-08-08T06:15:16.477Z,72.70
2017-08-08T06:17:45.331Z,72.60
2017-08-08T06:20:13.154Z,73.10
2017-08-08T06:22:40.811Z,71.60
2017-08-08T06:25:09.169Z,69.70
2017-08-08T06:27:36.821Z,69.60
2017-08-08T06:30:04.526Z,69.90
2017-08-08T06:32:32.144Z,69.00
2017-08-08T06:35:00.527Z,71.70
2017-08-08T06:37:28.337Z,71.50
2017-08-08T06:39:55.935Z,71.60
2017-08-08T06:42:23.532Z,72.20
2017-08-08T06:44:51.994Z,74.00
2017-08-08T06:47:19.606Z,74.80
2017-08-08T06:49:47.212Z,72.60
2017-08-08T06:52:14.848Z,73.40
2017-08-08T06:54:42.481Z,73.10
2017-08-08T06:57:10.069Z,72.10
2017-08-08T06:59:37.677Z,71.60
2017-08-08T07:02:06.055Z,71.90
2017-08-08T07:04:34.765Z,72.80
2017-08-08T07:07:02.420Z,72.20
2017-08-08T07:09:30.009Z,73.60
2017-08-08T07:11:57.688Z,72.40
2017-08-08T07:14:25.311Z,72.70
2017-08-08T07:16:52.971Z,72.30
2017-08-08T07:19:20.645Z,73.80
2017-08-08T07:21:48.437Z,73.00
2017-08-08T07:24:16.043Z,72.60
2017-08-08T07:26:44.391Z,71.70
2017-08-08T07:29:12.100Z,71.60
2017-08-08T07:31:39.693Z,72.00
2017-08-08T07:34:07.289Z,72.00
2017-08-08T07:36:34.969Z,71.00
2017-08-08T07:39:03.391Z,72.10
2017-08-08T07:41:30.992Z,72.20
2017-08-08T07:43:58.627Z,70.40
2017-08-08T07:46:26.241Z,70.30
2017-08-08T07:48:53.830Z,68.60
2017-08-08T07:51:21.459Z,68.90
2017-08-08T07:53:49.834Z,67.80
2017-08-08T07:56:18.240Z,66.80
2017-08-08T07:58:45.858Z,66.70
2017-08-08T08:01:14.232Z,65.40
2017-08-08T08:03:42.623Z,65.30
2017-08-08T08:06:11.069Z,64.70
2017-08-08T08:08:38.700Z,64.70
2017-08-08T08:11:06.331Z,64.20
2017-08-08T08:13:35.147Z,64.60
2017-08-08T08:16:02.742Z,64.50
2017-08-08T08:18:30.409Z,64.50
2017-08-08T08:20:58.022Z,67.00
2017-08-08T08:23:25.620Z,62.80
2017-08-08T08:25:53.296Z,63.20
2017-08-08T08:28:20.905Z,63.80
2017-08-08T08:30:48.531Z,61.80
2017-08-08T08:33:16.163Z,62.10
2017-08-08T08:35:43.791Z,63.10
2017-08-08T08:38:11.384Z,62.30
2017-08-08T08:40:39.044Z,61.50
2017-08-08T08:43:06.659Z,62.60
2017-08-08T08:45:35.005Z,61.40
2017-08-08T08:48:02.740Z,61.40
2017-08-08T08:50:30.359Z,61.30
2017-08-08T08:52:57.946Z,61.00
2017-08-08T08:55:26.294Z,59.30
2017-08-08T08:57:53.965Z,59.30
2017-08-08T09:00:21.599Z,60.00
2017-08-08T09:02:49.193Z,59.80
2017-08-08T09:05:16.820Z,59.70
2017-08-08T09:07:44.429Z,60.80
2017-08-08T09:10:12.837Z,61.90
2017-08-08T09:12:40.458Z,61.90
2017-08-08T09:15:08.948Z,61.40
2017-08-08T09:17:37.366Z,60.60
2017-08-08T09:20:04.982Z,60.70
2017-08-08T09:22:32.595Z,60.50
2017-08-08T09:25:00.253Z,61.60
2017-08-08T09:27:28.053Z,62.20
2017-08-08T09:29:55.656Z,62.60
2017-08-08T09:32:23.253Z,62.60
2017-08-08T09:34:50.930Z,64.10
2017-08-08T09:37:18.514Z,63.10
2017-08-08T09:39:46.101Z,63.10
2017-08-08T09:42:13.780Z,64.00
2017-08-08T09:44:41.419Z,62.80
2017-08-08T09:47:09.765Z,64.20
2017-08-08T09:49:37.456Z,64.20
2017-08-08T09:52:06.099Z,62.40
2017-08-08T09:54:33.695Z,62.30
2017-08-08T09:57:02.152Z,60.40
2017-08-08T09:59:29.789Z,60.40
2017-08-08T10:01:57.567Z,60.00
2017-08-08T10:04:25.195Z,59.30
2017-08-08T10:06:52.974Z,59.90
2017-08-08T10:09:20.638Z,59.30
2017-08-08T10:11:48.251Z,59.50
2017-08-08T10:14:16.605Z,59.60
2017-08-08T10:16:44.259Z,59.50
2017-08-08T10:19:12.002Z,59.10
2017-08-08T10:21:39.589Z,60.10
2017-08-08T10:24:07.200Z,60.20
2017-08-08T10:26:34.992Z,60.90
2017-08-08T10:29:02.583Z,60.80
2017-08-08T10:31:30.179Z,61.50
2017-08-08T10:33:57.886Z,61.50
2017-08-08T10:36:26.425Z,62.70
2017-08-08T10:38:54.017Z,62.10
2017-08-08T10:41:21.648Z,63.50
2017-08-08T10:43:49.317Z,64.20
2017-08-08T10:46:17.511Z,65.40
2017-08-08T10:48:45.675Z,66.30
2017-08-08T10:51:14.659Z,67.90
2017-08-08T10:53:42.459Z,71.20
2017-08-08T10:56:11.011Z,70.60
2017-08-08T10:58:39.307Z,72.00
2017-08-08T11:01:09.629Z,70.60
2017-08-08T11:03:37.879Z,71.60
2017-08-08T11:06:05.938Z,72.90
2017-08-08T11:08:38.440Z,73.00
2017-08-08T11:11:06.020Z,72.60
2017-08-08T11:13:33.781Z,73.40
2017-08-08T11:16:01.736Z,76.30
2017-08-08T11:18:29.329Z,75.80
2017-08-08T11:20:56.986Z,74.10
2017-08-08T11:23:24.795Z,74.10
2017-08-08T11:25:52.378Z,74.00
2017-08-08T11:28:20.297Z,73.70
2017-08-08T11:30:49.091Z,73.70
2017-08-08T11:33:18.092Z,74.60
2017-08-08T11:35:46.176Z,76.60
2017-08-08T11:38:13.816Z,75.50
2017-08-08T11:40:41.441Z,72.50
2017-08-08T11:43:09.104Z,71.40
2017-08-08T11:45:36.717Z,72.50
2017-08-08T11:48:05.085Z,74.60
2017-08-08T11:50:33.463Z,76.20
2017-08-08T11:53:01.873Z,74.50
2017-08-08T11:55:29.467Z,74.60
2017-08-08T11:57:57.114Z,73.50
2017-08-08T12:00:24.736Z,74.10
2017-08-08T12:02:53.170Z,76.10
2017-08-08T12:05:20.787Z,76.10
2017-08-08T12:07:48.409Z,77.90
2017-08-08T12:10:16.101Z,77.10
2017-08-08T12:12:44.471Z,78.60
2017-08-08T12:15:12.887Z,78.10
2017-08-08T12:17:40.541Z,78.10
2017-08-08T12:20:08.151Z,78.30
2017-08-08T12:22:35.792Z,78.20
2017-08-08T12:25:03.391Z,79.20
2017-08-08T12:27:31.790Z,79.00
2017-08-08T12:30:01.526Z,78.50
2017-08-08T12:32:29.792Z,78.30
2017-08-08T12:34:57.437Z,78.90
2017-08-08T12:37:25.105Z,78.90
2017-08-08T12:39:52.741Z,78.80
2017-08-08T12:42:20.347Z,78.40
2017-08-08T12:44:48.049Z,78.40
2017-08-08T12:47:15.671Z,78.50
2017-08-08T12:49:43.267Z,78.60
2017-08-08T12:52:10.898Z,78.60
2017-08-08T12:54:38.565Z,77.00
2017-08-08T12:57:06.244Z,77.50
2017-08-08T12:59:33.903Z,76.10
2017-08-08T13:02:01.484Z,74.70
2017-08-08T13:04:29.164Z,74.20
2017-08-08T13:06:57.549Z,77.50
2017-08-08T13:09:25.914Z,77.30
2017-08-08T13:11:53.544Z,77.10
2017-08-08T13:14:21.227Z,76.80
2017-08-08T13:16:48.835Z,77.50
2017-08-08T13:19:16.446Z,78.10
2017-08-08T13:21:44.920Z,80.60
2017-08-08T13:24:12.529Z,80.20
2017-08-08T13:26:40.135Z,81.10
2017-08-08T13:29:07.794Z,82.60
2017-08-08T13:31:35.416Z,85.40
2017-08-08T13:34:03.016Z,85.80
2017-08-08T13:36:30.634Z,86.60
2017-08-08T13:38:58.260Z,87.20
2017-08-08T13:41:25.859Z,89.70
2017-08-08T13:43:53.476Z,89.70
2017-08-08T13:46:21.082Z,90.00
2017-08-08T13:48:48.694Z,89.40
2017-08-08T13:51:16.375Z,89.50
2017-08-08T13:53:43.982Z,88.30
2017-08-08T13:56:11.586Z,87.90
2017-08-08T13:58:39.222Z,89.90
2017-08-08T14:01:07.953Z,89.10
2017-08-08T14:03:36.459Z,88.40
2017-08-08T14:06:04.146Z,88.30
2017-08-08T14:08:31.729Z,88.30
2017-08-08T14:10:59.336Z,88.80
2017-08-08T14:13:27.056Z,87.50
2017-08-08T14:15:54.643Z,88.70
2017-08-08T14:18:23.007Z,87.70
2017-08-08T14:20:50.753Z,87.70
2017-08-08T14:23:18.372Z,88.40
2017-08-08T14:25:45.956Z,88.40
2017-08-08T14:28:13.596Z,88.00
2017-08-08T14:30:41.227Z,89.30
2017-08-08T14:33:09.591Z,88.50
2017-08-08T14:35:37.255Z,87.80
2017-08-08T14:38:04.924Z,88.40
2017-08-08T14:40:33.348Z,89.60
2017-08-08T14:43:00.969Z,89.60
2017-08-08T14:45:29.323Z,89.80
2017-08-08T14:47:56.988Z,89.80
2017-08-08T14:50:24.647Z,87.30
2017-08-08T14:52:52.241Z,85.70
2017-08-08T14:55:20.610Z,85.10
2017-08-08T14:57:49.165Z,84.60
2017-08-08T15:00:16.871Z,84.60
2017-08-08T15:02:45.244Z,85.30
2017-08-08T15:05:13.640Z,86.70
2017-08-08T15:07:41.272Z,86.60
2017-08-08T15:10:09.640Z,88.20
2017-08-08T15:12:37.272Z,88.00
2017-08-08T15:15:04.931Z,86.80
2017-08-08T15:17:32.695Z,88.20
2017-08-08T15:20:00.326Z,86.70
2017-08-08T15:22:27.917Z,87.70
2017-08-08T15:24:55.651Z,89.90
2017-08-08T15:27:23.272Z,89.40
2017-08-08T15:29:50.881Z,90.40
2017-08-08T15:32:18.555Z,90.30
2017-08-08T15:34:46.235Z,91.00
2017-08-08T15:37:13.842Z,90.60
2017-08-08T15:39:42.215Z,90.80
2017-08-08T15:42:09.971Z,90.80
2017-08-08T15:44:37.572Z,90.40
2017-08-08T15:47:05.175Z,89.40
2017-08-08T15:49:32.821Z,88.30
2017-08-08T15:52:00.448Z,87.40
2017-08-08T15:54:28.034Z,86.40
2017-08-08T15:56:55.669Z,87.10
2017-08-08T15:59:23.265Z,88.40
2017-08-08T16:04:24.878Z,87.50
2017-08-08T16:06:53.229Z,88.60
2017-08-08T16:09:20.832Z,88.70
2017-08-08T16:11:48.524Z,87.10
2017-08-08T16:14:16.205Z,87.80
2017-08-08T16:16:43.808Z,88.10
2017-08-08T16:19:12.207Z,88.40
2017-08-08T16:21:39.839Z,88.40
2017-08-08T16:24:08.189Z,88.00
2017-08-08T16:26:35.796Z,88.50
2017-08-08T16:29:04.161Z,88.70
2017-08-08T16:31:32.703Z,88.90
2017-08-08T16:34:00.513Z,88.90
2017-08-08T16:36:28.167Z,88.60
2017-08-08T16:38:56.542Z,88.90
2017-08-08T16:41:24.351Z,88.90
2017-08-08T16:43:51.950Z,88.50
2017-08-08T16:46:19.565Z,88.60
2017-08-08T16:48:47.271Z,88.10
2017-08-08T16:51:14.964Z,86.80
2017-08-08T16:53:43.331Z,88.40
2017-08-08T16:56:10.961Z,88.20
2017-08-08T16:58:38.580Z,88.30
2017-08-08T17:01:06.415Z,89.20
2017-08-08T17:03:34.237Z,89.70
2017-08-08T17:06:02.900Z,88.90
2017-08-08T17:08:30.732Z,89.20
2017-08-08T17:10:58.435Z,88.40
2017-08-08T17:13:26.048Z,88.50
2017-08-08T17:15:54.862Z,89.00
2017-08-08T17:18:24.816Z,90.00
2017-08-08T17:20:52.493Z,90.00
2017-08-08T17:23:20.112Z,89.30
2017-08-08T17:25:47.782Z,89.30
2017-08-08T17:28:15.514Z,88.70
2017-08-08T17:30:43.306Z,88.90
2017-08-08T17:33:13.094Z,89.00
2017-08-08T17:35:40.698Z,87.70
2017-08-08T17:38:08.285Z,88.10
2017-08-08T17:40:36.141Z,88.20
2017-08-08T17:43:03.747Z,88.80
2017-08-08T17:45:31.355Z,88.60
2017-08-08T17:47:59.032Z,89.50
2017-08-08T17:50:26.699Z,88.70
2017-08-08T17:52:54.567Z,88.30
2017-08-08T17:55:22.689Z,88.60
2017-08-08T17:57:50.309Z,88.40
2017-08-08T18:00:17.951Z,88.80
2017-08-08T18:05:19.794Z,89.20
2017-08-08T18:07:47.961Z,89.20
2017-08-08T18:10:15.721Z,89.70
2017-08-08T18:12:44.113Z,89.20
2017-08-08T18:15:11.757Z,89.20
2017-08-08T18:17:40.189Z,89.90
2017-08-08T18:20:07.782Z,89.80
2017-08-08T18:22:35.611Z,89.80
2017-08-08T18:25:03.205Z,89.50
2017-08-08T18:27:30.785Z,89.70
2017-08-08T18:29:58.485Z,90.40
2017-08-08T18:32:26.190Z,90.50
2017-08-08T18:34:53.781Z,90.80
2017-08-08T18:37:21.546Z,90.60
2017-08-08T18:39:49.124Z,90.50
2017-08-08T18:42:16.759Z,90.40
2017-08-08T18:44:45.155Z,90.00
2017-08-08T18:47:12.826Z,90.00
2017-08-08T18:49:40.462Z,90.50
2017-08-08T18:52:08.082Z,90.40
2017-08-08T18:54:35.714Z,90.30
2017-08-08T18:57:03.313Z,89.80
2017-08-08T18:59:30.935Z,88.70
2017-08-08T19:01:58.548Z,90.20
2017-08-08T19:04:26.180Z,89.90
2017-08-08T19:06:53.829Z,89.90
2017-08-08T19:09:21.413Z,90.00
2017-08-08T19:11:49.371Z,90.30
2017-08-08T19:14:17.028Z,90.20
2017-08-08T19:16:44.618Z,90.20
2017-08-08T19:19:12.443Z,90.40
2017-08-08T19:21:40.133Z,90.40
2017-08-08T19:24:07.737Z,90.30
2017-08-08T19:26:35.436Z,90.30
2017-08-08T19:29:04.104Z,90.60
2017-08-08T19:31:31.836Z,90.60
2017-08-08T19:33:59.444Z,90.70
2017-08-08T19:36:27.193Z,90.70
2017-08-08T19:38:54.919Z,90.80
2017-08-08T19:41:23.301Z,91.10
2017-08-08T19:43:52.811Z,91.00
2017-08-08T19:46:20.450Z,91.00
2017-08-08T19:48:48.875Z,91.40
2017-08-08T19:51:16.510Z,91.10
2017-08-08T19:53:44.872Z,91.10
2017-08-08T19:56:12.481Z,91.40
2017-08-08T19:58:40.384Z,91.20
2017-08-08T20:01:08.151Z,91.40
2017-08-08T20:03:35.838Z,91.50
2017-08-08T20:06:03.445Z,91.40
2017-08-08T20:08:31.254Z,91.30
2017-08-08T20:10:58.898Z,91.20
2017-08-08T20:13:27.366Z,91.40
2017-08-08T20:15:55.092Z,91.50
2017-08-08T20:18:23.704Z,91.40
2017-08-08T20:20:52.917Z,91.30
2017-08-08T20:23:20.531Z,91.40
2017-08-08T20:25:48.176Z,91.30
2017-08-08T20:28:15.815Z,91.80
2017-08-08T20:30:43.421Z,91.30
2017-08-08T20:33:11.092Z,91.60
2017-08-08T20:35:38.787Z,91.90
2017-08-08T20:38:06.379Z,91.90
2017-08-08T20:40:33.958Z,91.90
2017-08-08T20:43:01.779Z,91.90
2017-08-08T20:45:29.423Z,92.00
2017-08-08T20:47:57.026Z,91.90
2017-08-08T20:50:24.872Z,91.70
2017-08-08T20:52:52.703Z,91.60
2017-08-08T20:55:20.314Z,91.60
2017-08-08T20:57:47.936Z,91.60
2017-08-08T21:00:15.609Z,91.60
2017-08-08T21:02:43.222Z,91.40
2017-08-08T21:05:10.952Z,91.40
2017-08-08T21:07:38.708Z,91.50
2017-08-08T21:10:06.376Z,91.40
2017-08-08T21:12:34.013Z,91.40
2017-08-08T21:15:01.685Z,91.50
2017-08-08T21:17:29.360Z,91.40
2017-08-08T21:19:56.991Z,91.40
2017-08-08T21:22:24.647Z,91.50
2017-08-08T21:24:52.281Z,91.60
2017-08-08T21:27:19.908Z,91.50
2017-08-08T21:29:47.498Z,91.60
2017-08-08T21:32:15.985Z,91.90
2017-08-08T21:34:43.642Z,91.90
2017-08-08T21:37:11.238Z,91.80
2017-08-08T21:39:38.868Z,91.80
2017-08-08T21:42:06.630Z,91.80
2017-08-08T21:44:34.244Z,91.70
2017-08-08T21:47:01.829Z,91.80
2017-08-08T21:49:29.573Z,92.00
2017-08-08T21:51:57.173Z,92.10
2017-08-08T21:54:24.759Z,92.30
2017-08-08T21:56:52.541Z,92.40
2017-08-08T21:59:20.179Z,92.30
2017-08-08T22:01:47.795Z,92.30
2017-08-08T22:04:15.476Z,92.10
2017-08-08T22:06:43.084Z,92.20
2017-08-08T22:09:10.682Z,92.00
2017-08-08T22:11:38.403Z,91.90
2017-08-08T22:14:06.053Z,92.10
2017-08-08T22:16:33.664Z,91.90
2017-08-08T22:19:01.297Z,91.90
2017-08-08T22:21:28.949Z,92.00
2017-08-08T22:23:56.553Z,92.00
2017-08-08T22:26:24.194Z,91.90
2017-08-08T22:28:56.793Z,91.70
2017-08-08T22:31:24.430Z,91.80
2017-08-08T22:33:52.110Z,91.70
2017-08-08T22:36:19.761Z,91.70
2017-08-08T22:38:47.404Z,91.70
2017-08-08T22:41:14.987Z,91.70
2017-08-08T22:43:42.624Z,91.80
2017-08-08T22:46:10.245Z,91.80
2017-08-08T22:48:38.875Z,91.90
2017-08-08T22:51:06.579Z,91.90
2017-08-08T22:53:34.300Z,91.90
2017-08-08T22:56:01.889Z,91.70
2017-08-08T22:58:29.524Z,92.00
2017-08-08T23:00:57.174Z,92.10
2017-08-08T23:03:24.775Z,92.10
2017-08-08T23:05:52.444Z,92.40
2017-08-08T23:08:20.084Z,92.40
2017-08-08T23:10:47.940Z,92.20
2017-08-08T23:13:16.446Z,92.20
2017-08-08T23:15:44.094Z,92.20
2017-08-08T23:18:11.998Z,92.20
2017-08-08T23:20:39.589Z,92.20
2017-08-08T23:23:07.255Z,92.10
2017-08-08T23:25:34.886Z,92.30
2017-08-08T23:28:03.283Z,92.30
2017-08-08T23:30:30.916Z,92.20
2017-08-08T23:32:59.279Z,92.40
2017-08-08T23:35:26.944Z,92.30
2017-08-08T23:37:54.583Z,92.40
2017-08-08T23:40:22.193Z,92.30
2017-08-08T23:42:50.003Z,92.40
2017-08-08T23:45:17.731Z,92.20
2017-08-08T23:47:46.174Z,92.10
2017-08-08T23:50:13.769Z,92.10
2017-08-08T23:52:41.478Z,92.10
2017-08-08T23:55:09.096Z,92.20
2017-08-08T23:57:36.731Z,92.40
